Time;durP1;ratioP1;P1;durP2;ratioP2;P2;SDS_P1;SDS_P2;PMS_P1;PMS_P2;Temp;Humidity;BMP_temperature;BMP_pressure;BME280_temperature;BME280_humidity;BME280_pressure;Samples;Min_cycle;Max_cycle;Signal;HPM_P1;HPM_P2
2023/12/04 05:05:49;;;;;;;21.45;16.65;;;;;;;-0.82;72.22;101536.41;5606539;31;78451;-57
2023/12/04 05:08:52;;;;;;;22.75;17.30;;;;;;;-0.82;72.22;101536.41;5570907;31;33987;-57
2023/12/04 05:11:54;;;;;;;19.70;16.05;;;;;;;-1.28;70.96;101535.59;5564293;32;34253;-58
2023/12/04 05:14:56;;;;;;;21.05;15.75;;;;;;;-1.42;71.66;101545.84;5568775;32;34323;-58
2023/12/04 05:17:59;;;;;;;24.92;16.80;;;;;;;-1.38;70.09;101551.59;5583796;32;33492;-58
2023/12/04 05:21:01;;;;;;;20.65;16.40;;;;;;;-1.50;74.38;101537.16;5583782;32;33559;-58
2023/12/04 05:24:03;;;;;;;21.55;16.37;;;;;;;-1.58;73.13;101535.41;5583693;31;33513;-58
2023/12/04 05:27:06;;;;;;;20.37;16.12;;;;;;;-1.50;73.79;101545.06;5583490;31;34271;-58
2023/12/04 05:30:09;;;;;;;19.83;15.82;;;;;;;-1.47;72.92;101540.28;5583641;32;33810;-58
2023/12/04 05:33:11;;;;;;;23.50;15.88;;;;;;;-1.36;72.07;101544.31;5583511;32;34321;-57
2023/12/04 05:36:13;;;;;;;31.80;17.15;;;;;;;-1.30;77.48;101532.28;5583438;32;33621;-57
2023/12/04 05:39:16;;;;;;;24.17;16.40;;;;;;;-1.32;90.95;101534.28;5583710;32;34265;-58
2023/12/04 05:42:18;;;;;;;27.20;18.17;;;;;;;-1.53;76.15;101529.63;5583553;32;33618;-58
2023/12/04 05:45:21;;;;;;;84.93;20.12;;;;;;;-1.37;74.17;101531.34;5583366;32;33543;-58
2023/12/04 05:48:23;;;;;;;19.70;14.80;;;;;;;-1.44;85.21;101544.38;5583582;31;33694;-57
2023/12/04 05:51:26;;;;;;;24.23;16.23;;;;;;;-1.48;71.28;101545.72;5583495;32;33539;-58
2023/12/04 05:54:29;;;;;;;21.52;15.98;;;;;;;-1.63;75.29;101542.97;5583147;32;33623;-58
2023/12/04 05:57:31;;;;;;;26.33;18.17;;;;;;;-1.62;72.63;101549.91;5583349;31;33658;-58
2023/12/04 06:00:33;;;;;;;27.15;19.25;;;;;;;-1.46;76.92;101547.19;5583257;31;33555;-58
2023/12/04 06:03:36;;;;;;;27.42;18.58;;;;;;;-1.64;70.43;101543.97;5582319;31;34293;-57
2023/12/04 06:06:38;;;;;;;26.83;17.85;;;;;;;-1.70;71.77;101545.47;5582955;31;33566;-58
2023/12/04 06:09:41;;;;;;;28.27;18.27;;;;;;;-1.65;69.21;101550.22;5582919;31;33637;-58
2023/12/04 06:12:43;;;;;;;25.42;18.62;;;;;;;-1.71;75.33;101545.66;5583373;32;33844;-57
2023/12/04 06:15:46;;;;;;;28.33;17.52;;;;;;;-1.65;70.66;101552.88;5576350;32;33654;-58
2023/12/04 06:18:48;;;;;;;23.17;17.05;;;;;;;-1.64;68.82;101553.69;5569947;32;34223;-57
2023/12/04 06:21:52;;;;;;;25.37;17.00;;;;;;;-1.56;70.71;101551.81;5569861;32;34147;-58
2023/12/04 06:24:55;;;;;;;25.15;15.70;;;;;;;-1.60;81.10;101555.78;5565127;32;33617;-57
2023/12/04 06:27:58;;;;;;;26.15;15.43;;;;;;;-1.23;96.52;101546.38;5566165;32;33562;-57
2023/12/04 06:31:02;;;;;;;19.87;14.15;;;;;;;-1.50;74.06;101555.56;5568857;32;33163;-58
2023/12/04 06:34:05;;;;;;;24.50;15.40;;;;;;;-1.44;70.97;101565.41;5569522;32;33959;-57
2023/12/04 06:37:12;;;;;;;22.85;16.17;;;;;;;-1.45;70.90;101564.59;5568266;32;33706;-58
2023/12/04 06:40:15;;;;;;;26.85;15.18;;;;;;;-1.42;80.75;101569.53;5568823;32;33676;-57
2023/12/04 06:43:18;;;;;;;21.10;15.10;;;;;;;-1.53;86.03;101572.50;5569591;32;33626;-58
2023/12/04 06:46:23;;;;;;;26.48;15.88;;;;;;;-1.47;72.03;101579.72;5569564;32;33672;-57
2023/12/04 06:49:30;;;;;;;24.63;16.50;;;;;;;-1.16;100.00;101578.09;5559893;32;33797;-57
2023/12/04 06:52:32;;;;;;;22.65;16.50;;;;;;;-1.37;80.69;101573.44;5569420;32;33618;-57
2023/12/04 06:55:35;;;;;;;25.08;16.62;;;;;;;-1.47;77.37;101574.47;5569544;32;33290;-57
2023/12/04 06:58:37;;;;;;;23.48;16.08;;;;;;;-1.22;100.00;101574.34;5564880;32;33645;-57
2023/12/04 07:01:39;;;;;;;25.52;16.58;;;;;;;-1.33;74.70;101575.53;5566094;32;33511;-57
2023/12/04 07:04:42;;;;;;;28.30;17.17;;;;;;;-1.32;72.30;101577.19;5567734;32;34360;-57
2023/12/04 07:07:44;;;;;;;24.98;15.50;;;;;;;-1.34;70.41;101576.53;5563670;32;33585;-57
2023/12/04 07:10:47;;;;;;;27.20;16.70;;;;;;;-1.28;69.51;101589.00;5569282;32;33797;-57
2023/12/04 07:13:50;;;;;;;26.33;15.88;;;;;;;-1.54;70.81;101588.47;5569236;32;33627;-57
2023/12/04 07:16:52;;;;;;;25.80;16.92;;;;;;;-1.38;79.35;101579.69;5568506;32;33699;-58
2023/12/04 07:19:54;;;;;;;25.40;18.35;;;;;;;-1.33;73.16;101586.06;5567796;32;34332;-57
2023/12/04 07:22:58;;;;;;;23.95;16.08;;;;;;;-1.32;70.39;101585.09;5563389;32;33655;-57
2023/12/04 07:26:00;;;;;;;22.15;16.12;;;;;;;-1.14;73.73;101574.28;5569114;32;33674;-57
2023/12/04 07:29:03;;;;;;;29.37;17.17;;;;;;;-1.12;78.40;101582.03;5565848;32;33689;-58
2023/12/04 07:32:06;;;;;;;28.95;18.58;;;;;;;-1.08;74.32;101581.50;5563338;32;34285;-57
2023/12/04 07:35:08;;;;;;;24.67;17.02;;;;;;;-1.08;80.11;101586.75;5568813;32;34357;-57
2023/12/04 07:38:11;;;;;;;28.73;18.50;;;;;;;-0.93;86.46;101583.38;5568659;32;33873;-57
2023/12/04 07:41:13;;;;;;;28.30;18.85;;;;;;;-0.95;76.80;101584.38;5562658;32;33609;-57
2023/12/04 07:44:16;;;;;;;31.35;20.62;;;;;;;-0.83;70.75;101586.59;5567958;32;33704;-57
2023/12/04 07:47:18;;;;;;;31.62;20.40;;;;;;;-0.74;76.47;101586.37;5568772;32;33540;-57
2023/12/04 07:50:20;;;;;;;30.08;20.67;;;;;;;-0.61;70.97;101585.78;5567433;32;34289;-58
2023/12/04 07:53:23;;;;;;;27.02;19.45;;;;;;;-0.57;76.46;101591.50;5568022;32;33867;-57
2023/12/04 07:56:25;;;;;;;30.40;21.30;;;;;;;-0.49;70.54;101594.91;5568427;32;33697;-57
2023/12/04 07:59:28;;;;;;;31.35;20.52;;;;;;;-0.47;82.67;101592.91;5567927;32;33708;-57
2023/12/04 08:02:30;;;;;;;32.92;21.70;;;;;;;-0.31;71.52;101593.75;5566341;32;33696;-57
2023/12/04 08:05:34;;;;;;;30.73;20.90;;;;;;;-0.12;69.08;101589.81;5562710;32;33672;-57
2023/12/04 08:08:36;;;;;;;35.22;22.17;;;;;;;-0.11;71.42;101591.44;5564143;31;33035;-57
2023/12/04 08:11:38;;;;;;;30.98;22.30;;;;;;;-0.05;70.44;101594.16;5565228;32;32958;-57
2023/12/04 08:14:40;;;;;;;31.08;21.75;;;;;;;-0.03;71.92;101597.47;5566476;32;33291;-58
2023/12/04 08:17:43;;;;;;;33.60;22.58;;;;;;;0.08;78.86;101593.56;5566663;32;34378;-57
2023/12/04 08:20:46;;;;;;;36.13;22.87;;;;;;;0.08;83.57;101592.72;5548770;32;34275;-58
2023/12/04 08:23:48;;;;;;;33.40;22.42;;;;;;;0.37;90.02;101602.47;5560694;32;33563;-57
2023/12/04 08:26:51;;;;;;;30.90;20.90;;;;;;;0.74;87.92;101598.88;5565739;32;34126;-58
2023/12/04 08:29:53;;;;;;;29.67;19.58;;;;;;;0.71;72.55;101596.59;5565845;32;33631;-57
2023/12/04 08:32:55;;;;;;;27.77;19.87;;;;;;;0.76;68.89;101588.94;5567580;32;34217;-58
2023/12/04 08:35:58;;;;;;;28.42;20.45;;;;;;;0.80;67.25;101592.03;5566749;32;33527;-57
2023/12/04 08:39:00;;;;;;;29.20;20.20;;;;;;;0.71;68.01;101599.25;5566865;32;33589;-58
2023/12/04 08:42:03;;;;;;;36.30;23.58;;;;;;;0.82;89.12;101590.03;5568321;32;33744;-58
2023/12/04 08:45:11;;;;;;;31.85;22.95;;;;;;;1.17;98.67;101588.38;5563258;32;33321;-58
2023/12/04 08:48:13;;;;;;;35.65;23.25;;;;;;;1.10;80.47;101585.66;5565506;32;34276;-58
2023/12/04 08:51:17;;;;;;;36.22;23.60;;;;;;;1.24;75.36;101581.31;5566469;32;33241;-56
2023/12/04 08:54:19;;;;;;;33.55;22.98;;;;;;;1.34;70.07;101578.38;5566187;32;33694;-55
2023/12/04 08:57:21;;;;;;;33.70;23.60;;;;;;;1.54;68.36;101586.47;5566326;32;33606;-55
2023/12/04 09:00:24;;;;;;;33.03;22.60;;;;;;;1.55;68.13;101585.44;5565530;32;34319;-56
2023/12/04 09:03:26;;;;;;;30.70;22.08;;;;;;;1.54;68.58;101591.75;5559375;32;34276;-56
2023/12/04 09:06:36;;;;;;;32.67;22.90;;;;;;;1.55;67.83;101590.72;5557169;32;33575;-56
2023/12/04 09:09:41;;;;;;;30.60;21.80;;;;;;;1.43;76.18;101598.38;5566319;32;34354;-56
2023/12/04 09:12:43;;;;;;;27.50;19.05;;;;;;;1.64;84.14;101587.78;5568074;32;33496;-57
2023/12/04 09:15:46;;;;;;;20.33;15.00;;;;;;;2.04;90.35;101590.69;5550095;32;34186;-56
2023/12/04 09:18:49;;;;;;;23.00;15.55;;;;;;;2.23;73.87;101588.38;5550806;32;33503;-55
2023/12/04 09:21:53;;;;;;;18.83;13.65;;;;;;;2.25;75.48;101586.34;5558961;32;33162;-56
2023/12/04 09:25:10;;;;;;;17.65;12.90;;;;;;;2.34;84.10;101590.47;5565742;32;33210;-56
2023/12/04 09:28:13;;;;;;;18.85;13.30;;;;;;;2.24;65.06;101582.06;5565582;32;33694;-55
2023/12/04 09:31:16;;;;;;;21.40;13.48;;;;;;;2.29;71.02;101579.66;5558643;32;33081;-55
2023/12/04 09:34:20;;;;;;;19.10;12.70;;;;;;;2.33;88.23;101578.25;5560804;32;33695;-56
2023/12/04 09:37:22;;;;;;;19.52;13.02;;;;;;;2.47;67.38;101573.84;5558158;32;32389;-56
2023/12/04 09:40:25;;;;;;;20.60;15.10;;;;;;;2.61;81.64;101566.75;5558758;32;34259;-56
2023/12/04 09:43:34;;;;;;;18.85;12.88;;;;;;;3.00;96.10;101566.06;5562193;32;33181;-55
2023/12/04 09:46:38;;;;;;;19.37;13.43;;;;;;;2.88;63.96;101557.06;5561261;32;33091;-56
2023/12/04 09:49:40;;;;;;;20.33;14.02;;;;;;;2.70;67.36;101553.16;5559298;32;34102;-56
2023/12/04 09:52:43;;;;;;;18.27;13.18;;;;;;;3.21;92.83;101555.31;5555485;32;33680;-56
2023/12/04 09:55:49;;;;;;;17.37;12.70;;;;;;;3.41;70.76;101539.41;5568423;32;33733;-56
2023/12/04 09:59:00;;;;;;;16.65;11.85;;;;;;;3.25;71.75;101537.97;5563513;32;33737;-56
2023/12/04 10:02:04;;;;;;;20.05;12.63;;;;;;;3.72;89.41;101540.62;5569741;32;34037;-56
2023/12/04 10:05:08;;;;;;;17.52;13.45;;;;;;;3.44;63.79;101532.88;5562375;32;34429;-56
2023/12/04 10:08:10;;;;;;;19.10;13.62;;;;;;;3.29;65.85;101533.09;5568161;32;34308;-56
2023/12/04 10:11:13;;;;;;;24.25;17.65;;;;;;;3.53;94.06;101521.03;5562738;32;33408;-56
2023/12/04 10:14:19;;;;;;;25.85;17.48;;;;;;;3.22;72.16;101516.38;5567653;32;33623;-56
2023/12/04 10:17:22;;;;;;;27.58;16.30;;;;;;;3.21;74.42;101517.38;5557297;32;34618;-56
2023/12/04 10:20:24;;;;;;;27.37;18.35;;;;;;;3.22;63.30;101509.22;5568177;32;33496;-56
2023/12/04 10:23:42;;;;;;;25.95;17.55;;;;;;;3.17;72.52;101500.25;5566854;32;33397;-56
2023/12/04 10:26:51;;;;;;;26.67;15.27;;;;;;;3.03;74.46;101494.94;5564387;32;33482;-56
2023/12/04 10:29:54;;;;;;;30.80;15.77;;;;;;;3.18;69.28;101496.56;5557948;32;34398;-56
2023/12/04 10:33:06;;;;;;;19.23;13.70;;;;;;;3.17;68.92;101490.47;5567850;32;33653;-56
2023/12/04 10:36:12;;;;;;;17.80;13.60;;;;;;;3.01;60.69;101486.41;5563026;32;33612;-55
2023/12/04 10:39:14;;;;;;;17.77;12.23;;;;;;;3.05;61.12;101474.37;5566099;32;33628;-56
2023/12/04 10:42:27;;;;;;;17.65;12.57;;;;;;;3.01;59.76;101470.50;5567915;32;34419;-56
2023/12/04 10:45:29;;;;;;;14.77;10.95;;;;;;;3.03;61.04;101470.28;5565901;32;34269;-55
2023/12/04 10:48:32;;;;;;;15.77;11.77;;;;;;;3.15;59.68;101465.22;5566538;32;33856;-56
2023/12/04 10:51:35;;;;;;;14.65;10.57;;;;;;;3.34;61.97;101458.25;5566083;32;33774;-56
2023/12/04 10:54:38;;;;;;;17.80;11.77;;;;;;;3.13;60.46;101460.09;5568915;32;33635;-55
2023/12/04 10:57:43;;;;;;;17.73;11.48;;;;;;;4.03;94.03;101468.28;5569282;32;34321;-56
2023/12/04 11:00:50;;;;;;;15.45;11.15;;;;;;;4.17;93.82;101448.66;5565319;32;33896;-55
2023/12/04 11:03:58;;;;;;;16.73;10.60;;;;;;;3.96;75.44;101443.63;5566653;32;33953;-56
2023/12/04 11:07:05;;;;;;;14.32;10.23;;;;;;;3.75;64.16;101436.75;5567096;32;33611;-56
2023/12/04 11:10:10;;;;;;;13.62;10.32;;;;;;;3.91;64.40;101440.81;5554101;32;33991;-56
2023/12/04 11:13:19;;;;;;;14.80;10.00;;;;;;;4.23;76.23;101436.34;5567988;32;33243;-56
2023/12/04 11:16:28;;;;;;;16.80;10.05;;;;;;;4.17;61.42;101438.03;5568831;32;34419;-56
2023/12/04 11:19:49;;;;;;;15.07;10.43;;;;;;;4.30;86.63;101425.69;5565992;32;33591;-56
2023/12/04 11:22:55;;;;;;;14.82;10.63;;;;;;;4.19;74.69;101425.34;5562727;32;34415;-56
2023/12/04 11:26:00;;;;;;;14.60;10.23;;;;;;;4.40;84.33;101420.75;5567098;32;33614;-56
2023/12/04 11:29:03;;;;;;;17.35;11.27;;;;;;;4.67;71.77;101422.22;5565139;32;33502;-56
2023/12/04 11:32:07;;;;;;;15.27;11.15;;;;;;;4.63;92.00;101418.34;5566837;32;33283;-56
2023/12/04 11:35:13;;;;;;;17.40;11.48;;;;;;;4.98;99.13;101409.09;5558464;32;32276;-56
2023/12/04 11:38:19;;;;;;;18.23;13.05;;;;;;;4.67;75.90;101403.63;5564459;32;33772;-56
2023/12/04 11:41:23;;;;;;;14.05;11.00;;;;;;;4.31;61.92;101396.31;5561468;32;33644;-56
2023/12/04 11:44:29;;;;;;;13.32;10.50;;;;;;;4.55;93.79;101400.03;5554784;32;33635;-56
2023/12/04 11:47:56;;;;;;;13.55;10.35;;;;;;;4.26;60.96;101398.78;5564173;32;33694;-57
2023/12/04 11:51:00;;;;;;;12.48;9.65;;;;;;;4.11;76.19;101393.75;5565667;32;33651;-56
2023/12/04 11:54:04;;;;;;;28.95;11.50;;;;;;;4.17;70.48;101392.91;5566725;32;33666;-56
2023/12/04 11:57:10;;;;;;;13.98;9.43;;;;;;;4.82;96.73;101381.22;5558612;32;34562;-56
2023/12/04 12:00:19;;;;;;;13.20;9.60;;;;;;;4.76;87.00;101382.09;5567105;32;34199;-56
2023/12/04 12:03:22;;;;;;;13.05;8.93;;;;;;;4.95;83.46;101381.12;5565694;32;34532;-56
2023/12/04 12:06:25;;;;;;;13.85;9.35;;;;;;;4.90;64.68;101371.16;5565734;32;33824;-56
2023/12/04 12:09:29;;;;;;;13.43;9.48;;;;;;;4.82;62.53;101367.94;5568548;32;33609;-56
2023/12/04 12:12:35;;;;;;;13.00;9.35;;;;;;;4.78;63.88;101359.59;5557963;32;34516;-56
2023/12/04 12:15:37;;;;;;;14.20;9.93;;;;;;;4.82;76.33;101365.28;5556189;32;33665;-56
2023/12/04 12:18:41;;;;;;;13.57;10.00;;;;;;;5.10;96.40;101352.37;5565732;32;33570;-58
2023/12/04 12:21:43;;;;;;;12.93;9.77;;;;;;;5.33;90.54;101348.22;5567455;32;33636;-58
2023/12/04 12:24:46;;;;;;;14.80;9.98;;;;;;;4.91;82.72;101332.09;5568054;32;33891;-58
2023/12/04 12:27:50;;;;;;;12.95;9.52;;;;;;;5.17;70.22;101325.72;5563275;32;34995;-58
2023/12/04 12:30:53;;;;;;;12.68;9.40;;;;;;;5.36;77.18;101323.84;5566645;32;33695;-58
2023/12/04 12:33:56;;;;;;;12.45;9.23;;;;;;;5.31;79.10;101318.41;5560243;32;33094;-58
2023/12/04 12:37:00;;;;;;;13.38;10.13;;;;;;;5.59;91.53;101316.00;5566452;32;34399;-58
2023/12/04 12:40:04;;;;;;;14.05;10.10;;;;;;;5.46;88.13;101305.53;5567927;32;33572;-58
2023/12/04 12:43:08;;;;;;;12.27;9.45;;;;;;;4.98;74.34;101303.63;5567201;32;33735;-58
2023/12/04 12:46:13;;;;;;;13.23;9.60;;;;;;;4.70;61.69;101288.97;5560247;32;32169;-57
2023/12/04 12:49:22;;;;;;;13.77;10.20;;;;;;;4.71;61.88;101292.44;5561920;32;34241;-58
2023/12/04 12:52:37;;;;;;;12.55;9.60;;;;;;;4.61;69.29;101298.25;5562904;32;34300;-58
2023/12/04 12:55:40;;;;;;;14.68;10.32;;;;;;;4.34;59.14;101304.78;5565768;32;34006;-58
2023/12/04 12:58:46;;;;;;;13.83;10.37;;;;;;;4.83;89.34;101311.94;5560883;32;33777;-58
2023/12/04 13:01:48;;;;;;;14.32;10.10;;;;;;;4.67;60.56;101304.53;5555130;32;33350;-58
2023/12/04 13:04:51;;;;;;;14.32;10.43;;;;;;;4.52;66.18;101290.78;5559650;32;33417;-58
2023/12/04 13:07:55;;;;;;;18.20;10.88;;;;;;;4.54;76.07;101292.19;5562223;32;34391;-58
2023/12/04 13:10:57;;;;;;;14.05;10.60;;;;;;;4.62;78.55;101291.91;5567951;32;33598;-58
2023/12/04 13:14:01;;;;;;;12.85;9.77;;;;;;;5.12;87.51;101298.97;5565504;32;34463;-58
2023/12/04 13:17:04;;;;;;;12.88;9.68;;;;;;;4.98;95.03;101287.69;5559325;32;34364;-58
2023/12/04 13:20:11;;;;;;;15.23;10.98;;;;;;;4.93;89.81;101292.81;5560533;32;33165;-58
2023/12/04 13:23:14;;;;;;;17.80;10.20;;;;;;;4.82;69.71;101290.91;5556053;32;33658;-58
2023/12/04 13:26:16;;;;;;;12.37;9.38;;;;;;;4.83;81.80;101290.66;5549482;32;33864;-58
2023/12/04 13:29:19;;;;;;;47.75;29.87;;;;;;;5.18;89.62;101293.59;5567866;32;33620;-58
2023/12/04 13:32:22;;;;;;;17.65;14.13;;;;;;;5.22;83.45;101285.16;5570100;32;33791;-58
2023/12/04 13:35:24;;;;;;;13.43;10.27;;;;;;;4.67;60.72;101280.63;5569495;32;33642;-58
2023/12/04 13:38:27;;;;;;;14.73;10.80;;;;;;;4.30;64.17;101269.09;5569226;32;33765;-58
2023/12/04 13:45:01;;;;;;;16.10;10.70;;;;;;;4.94;73.97;101270.56;5566979;32;33680;-58
2023/12/04 13:48:03;;;;;;;19.25;12.95;;;;;;;4.79;86.81;101265.59;5567280;32;32446;-58
2023/12/04 13:51:09;;;;;;;16.62;13.40;;;;;;;4.80;67.47;101271.69;5568466;32;33762;-58
2023/12/04 13:54:22;;;;;;;46.17;33.53;;;;;;;5.02;93.93;101266.78;5569851;32;34429;-58
2023/12/04 13:57:42;;;;;;;21.60;15.57;;;;;;;4.98;65.23;101265.59;5566693;32;34346;-58
2023/12/04 14:00:44;;;;;;;15.95;11.90;;;;;;;5.17;90.89;101257.41;5566529;32;33702;-58
2023/12/04 14:03:47;;;;;;;15.00;11.48;;;;;;;4.82;80.06;101262.50;5568426;32;33740;-58
2023/12/04 14:06:50;;;;;;;14.50;9.88;;;;;;;5.01;95.15;101254.53;5566936;32;34376;-58
2023/12/04 14:09:53;;;;;;;14.10;9.50;;;;;;;4.95;80.65;101261.53;5569505;31;33752;-58
2023/12/04 14:12:55;;;;;;;15.73;11.25;;;;;;;4.99;89.18;101264.56;5568387;32;33641;-59
2023/12/04 14:16:01;;;;;;;15.45;11.55;;;;;;;4.79;64.44;101262.94;5566903;32;33714;-58
2023/12/04 14:19:04;;;;;;;15.60;11.27;;;;;;;4.53;64.64;101258.69;5566214;32;34105;-58
2023/12/04 14:22:07;;;;;;;13.52;10.63;;;;;;;4.42;86.51;101254.91;5561499;32;34039;-58
2023/12/04 14:25:09;;;;;;;15.55;10.68;;;;;;;4.20;63.12;101249.16;5566407;32;33660;-58
2023/12/04 14:28:12;;;;;;;15.52;10.32;;;;;;;4.16;85.71;101247.97;5549930;32;33755;-58
2023/12/04 14:31:14;;;;;;;18.60;11.48;;;;;;;4.56;94.31;101244.16;5567988;32;33620;-58
2023/12/04 14:34:17;;;;;;;16.98;11.02;;;;;;;4.54;81.00;101243.59;5570011;32;34439;-58
2023/12/04 14:37:19;;;;;;;21.25;12.55;;;;;;;4.41;81.22;101244.50;5569407;32;33648;-58
2023/12/04 14:40:23;;;;;;;17.45;12.37;;;;;;;4.34;78.42;101230.47;5569540;32;33716;-58
2023/12/04 14:43:25;;;;;;;17.50;13.05;;;;;;;4.27;90.33;101230.50;5569384;32;34312;-56
2023/12/04 14:46:28;;;;;;;18.77;13.20;;;;;;;4.62;91.93;101224.69;5569232;32;33642;-56
2023/12/04 14:49:30;;;;;;;20.83;12.80;;;;;;;4.74;85.70;101219.47;5569414;32;33812;-56
2023/12/04 14:52:34;;;;;;;22.92;12.50;;;;;;;4.65;75.49;101219.75;5568356;32;33345;-56
2023/12/04 14:56:06;;;;;;;30.45;12.75;;;;;;;4.46;86.97;101224.22;5569096;32;33394;-56
2023/12/04 15:05:42;;;;;;;31.85;17.48;;;;;;;4.26;63.58;101220.94;5569173;32;34391;-56
2023/12/04 15:18:36;;;;;;;18.73;13.00;;;;;;;3.87;65.48;101220.22;5569046;32;34321;-55
2023/12/04 15:21:39;;;;;;;20.35;13.88;;;;;;;4.36;94.53;101215.94;5569321;32;33755;-55
2023/12/04 15:24:42;;;;;;;20.08;13.48;;;;;;;4.28;75.69;101218.09;5568298;32;33579;-55
2023/12/04 15:27:46;;;;;;;21.98;13.35;;;;;;;4.03;66.12;101202.16;5569010;32;33708;-56
2023/12/04 15:30:49;;;;;;;17.92;13.05;;;;;;;4.09;71.44;101204.75;5569479;32;34443;-56
2023/12/04 15:33:52;;;;;;;17.90;12.60;;;;;;;4.14;74.26;101196.13;5569404;32;33711;-55
2023/12/04 15:36:54;;;;;;;21.85;13.93;;;;;;;4.37;81.98;101188.38;5569351;32;34305;-56
2023/12/04 15:39:58;;;;;;;20.65;13.48;;;;;;;4.40;79.69;101197.72;5569061;32;33857;-55
2023/12/04 15:43:01;;;;;;;18.83;13.48;;;;;;;4.14;74.39;101193.47;5569233;32;33600;-55
2023/12/04 15:46:05;;;;;;;20.88;13.80;;;;;;;4.13;75.13;101191.84;5569151;32;33705;-55
2023/12/04 15:49:10;;;;;;;21.83;13.40;;;;;;;4.16;63.53;101197.53;5567855;32;34447;-56
2023/12/04 15:52:13;;;;;;;20.15;13.57;;;;;;;4.39;74.15;101206.75;5569400;32;34237;-55
2023/12/04 15:55:15;;;;;;;22.73;16.40;;;;;;;4.20;67.83;101195.25;5567918;32;33089;-55
2023/12/04 15:58:18;;;;;;;20.98;13.32;;;;;;;4.31;87.28;101191.91;5567780;32;33774;-55
2023/12/04 16:01:20;;;;;;;19.05;13.35;;;;;;;4.41;70.64;101194.06;5568842;32;33663;-55
2023/12/04 16:04:22;;;;;;;20.77;13.95;;;;;;;4.06;64.66;101194.56;5569092;32;33666;-56
2023/12/04 16:07:25;;;;;;;20.88;14.15;;;;;;;4.32;79.33;101198.03;5567814;32;34328;-55
2023/12/04 16:10:27;;;;;;;20.85;14.35;;;;;;;4.18;71.99;101194.69;5568456;32;33602;-55
2023/12/04 16:13:30;;;;;;;20.20;14.90;;;;;;;3.95;69.92;101196.09;5566999;32;33458;-55
2023/12/04 16:16:32;;;;;;;19.55;14.48;;;;;;;3.81;67.64;101199.03;5567842;32;34323;-56
2023/12/04 16:19:37;;;;;;;22.40;15.55;;;;;;;4.31;80.50;101189.25;5569015;32;34279;-56
2023/12/04 16:22:41;;;;;;;18.83;14.13;;;;;;;4.31;79.22;101175.19;5568711;32;34386;-56
2023/12/04 16:25:44;;;;;;;21.12;15.95;;;;;;;4.59;89.26;101190.63;5568513;32;33665;-56
2023/12/04 16:28:46;;;;;;;22.42;16.40;;;;;;;4.35;87.77;101185.13;5568430;32;33645;-56
2023/12/04 16:31:48;;;;;;;21.02;15.40;;;;;;;4.06;63.97;101191.09;5568868;31;32866;-56
2023/12/04 16:34:51;;;;;;;26.02;17.70;;;;;;;3.88;64.44;101190.03;5568579;32;33421;-56
2023/12/04 16:37:53;;;;;;;20.10;14.77;;;;;;;3.67;64.12;101195.66;5568418;32;33645;-56
2023/12/04 16:40:56;;;;;;;20.23;15.80;;;;;;;4.13;81.07;101184.72;5568955;32;34397;-56
2023/12/04 16:44:01;;;;;;;20.50;14.95;;;;;;;4.17;88.91;101190.38;5568518;32;34430;-56
